EGVA - Fairford Royal AFB
Distance from station: E 5mi, 14km
Updated: 02/17/2018 12:56pm
Partly Cloudy
Partly Cloudy
 Wind from S
Wind: S 7 mph , 11 km/h
Temperature: 39°F , 4°C
Wind Chill: 34°F , 1°C
Dew Point: 36°F , 2°C
Humidity: 87%
Barometer: 30.17 inHg , 1021.7 hPa
Clouds: Partly Cloudy
Cloud details: Few Clouds 5000 ft
Partly Cloudy 6000 ft
2018/02/17 20:56 EGVA 172056Z AUTO 19006KT M M FEW050 SCT060 04/02 A3017 RMK AO2 SLP224 T00350015 51005 RVRNO $